sensor_id;sensor_type;location;lat;lon;timestamp;temperature;humidity
3678;DHT22;1855;50.934;6.958;2022-07-22T00:01:32;17.10;91.60
3678;DHT22;1855;50.934;6.958;2022-07-22T00:03:59;17.00;91.50
3678;DHT22;1855;50.934;6.958;2022-07-22T00:06:27;17.00;91.70
3678;DHT22;1855;50.934;6.958;2022-07-22T00:08:54;17.00;91.50
3678;DHT22;1855;50.934;6.958;2022-07-22T00:11:22;17.00;91.60
3678;DHT22;1855;50.934;6.958;2022-07-22T00:13:49;17.00;91.70
3678;DHT22;1855;50.934;6.958;2022-07-22T00:16:16;17.00;91.60
3678;DHT22;1855;50.934;6.958;2022-07-22T00:18:43;17.00;91.60
3678;DHT22;1855;50.934;6.958;2022-07-22T00:21:10;17.10;91.60
3678;DHT22;1855;50.934;6.958;2022-07-22T00:23:37;17.00;91.60
3678;DHT22;1855;50.934;6.958;2022-07-22T00:26:04;17.10;91.50
3678;DHT22;1855;50.934;6.958;2022-07-22T00:28:32;17.10;90.90
3678;DHT22;1855;50.934;6.958;2022-07-22T00:30:59;17.10;90.90
3678;DHT22;1855;50.934;6.958;2022-07-22T00:33:25;17.10;90.90
3678;DHT22;1855;50.934;6.958;2022-07-22T00:35:52;17.10;90.50
3678;DHT22;1855;50.934;6.958;2022-07-22T00:38:19;17.00;90.50
3678;DHT22;1855;50.934;6.958;2022-07-22T00:40:46;17.00;90.50
3678;DHT22;1855;50.934;6.958;2022-07-22T00:43:13;17.00;90.70
3678;DHT22;1855;50.934;6.958;2022-07-22T00:45:41;17.00;90.50
3678;DHT22;1855;50.934;6.958;2022-07-22T00:48:08;17.10;90.50
3678;DHT22;1855;50.934;6.958;2022-07-22T00:50:35;17.00;90.70
3678;DHT22;1855;50.934;6.958;2022-07-22T00:53:02;17.00;90.60
3678;DHT22;1855;50.934;6.958;2022-07-22T00:55:29;17.00;90.30
3678;DHT22;1855;50.934;6.958;2022-07-22T00:57:56;17.00;90.40
3678;DHT22;1855;50.934;6.958;2022-07-22T01:00:23;17.00;90.90
3678;DHT22;1855;50.934;6.958;2022-07-22T01:02:52;17.00;90.60
3678;DHT22;1855;50.934;6.958;2022-07-22T01:05:19;17.00;90.80
3678;DHT22;1855;50.934;6.958;2022-07-22T01:07:46;17.00;90.70
3678;DHT22;1855;50.934;6.958;2022-07-22T01:10:13;17.00;90.50
3678;DHT22;1855;50.934;6.958;2022-07-22T01:12:40;17.00;90.80
3678;DHT22;1855;50.934;6.958;2022-07-22T01:15:08;17.10;90.70
3678;DHT22;1855;50.934;6.958;2022-07-22T01:17:35;17.10;90.80
3678;DHT22;1855;50.934;6.958;2022-07-22T01:20:04;17.10;90.20
3678;DHT22;1855;50.934;6.958;2022-07-22T01:22:31;17.00;90.50
3678;DHT22;1855;50.934;6.958;2022-07-22T01:24:58;17.00;90.50
3678;DHT22;1855;50.934;6.958;2022-07-22T01:27:25;17.00;90.60
3678;DHT22;1855;50.934;6.958;2022-07-22T01:29:52;17.10;90.20
3678;DHT22;1855;50.934;6.958;2022-07-22T01:32:18;17.10;90.10
3678;DHT22;1855;50.934;6.958;2022-07-22T01:34:45;17.00;90.40
3678;DHT22;1855;50.934;6.958;2022-07-22T01:37:13;17.00;90.20
3678;DHT22;1855;50.934;6.958;2022-07-22T01:39:40;16.90;90.40
3678;DHT22;1855;50.934;6.958;2022-07-22T01:42:07;16.90;90.70
3678;DHT22;1855;50.934;6.958;2022-07-22T01:44:34;16.90;91.00
3678;DHT22;1855;50.934;6.958;2022-07-22T01:47:00;16.90;91.00
3678;DHT22;1855;50.934;6.958;2022-07-22T01:49:27;17.00;90.60
3678;DHT22;1855;50.934;6.958;2022-07-22T01:51:54;16.90;90.80
3678;DHT22;1855;50.934;6.958;2022-07-22T01:54:22;16.90;90.90
3678;DHT22;1855;50.934;6.958;2022-07-22T01:56:49;17.00;90.80
3678;DHT22;1855;50.934;6.958;2022-07-22T01:59:16;17.00;90.90
3678;DHT22;1855;50.934;6.958;2022-07-22T02:01:43;17.00;90.90
3678;DHT22;1855;50.934;6.958;2022-07-22T02:04:10;17.00;91.00
3678;DHT22;1855;50.934;6.958;2022-07-22T02:06:37;17.00;91.30
3678;DHT22;1855;50.934;6.958;2022-07-22T02:09:04;17.00;91.00
3678;DHT22;1855;50.934;6.958;2022-07-22T02:11:33;17.00;90.60
3678;DHT22;1855;50.934;6.958;2022-07-22T02:13:59;17.00;90.80
3678;DHT22;1855;50.934;6.958;2022-07-22T02:16:27;17.00;90.70
3678;DHT22;1855;50.934;6.958;2022-07-22T02:18:54;17.00;90.70
3678;DHT22;1855;50.934;6.958;2022-07-22T02:21:21;17.00;90.60
3678;DHT22;1855;50.934;6.958;2022-07-22T02:23:48;17.00;90.80
3678;DHT22;1855;50.934;6.958;2022-07-22T02:26:15;17.00;90.80
3678;DHT22;1855;50.934;6.958;2022-07-22T02:28:43;17.00;90.90
3678;DHT22;1855;50.934;6.958;2022-07-22T02:31:10;17.00;90.90
3678;DHT22;1855;50.934;6.958;2022-07-22T02:33:36;17.00;90.90
3678;DHT22;1855;50.934;6.958;2022-07-22T02:36:04;17.00;90.50
3678;DHT22;1855;50.934;6.958;2022-07-22T02:38:31;17.00;90.50
3678;DHT22;1855;50.934;6.958;2022-07-22T02:40:57;17.00;90.40
3678;DHT22;1855;50.934;6.958;2022-07-22T02:43:24;17.00;90.60
3678;DHT22;1855;50.934;6.958;2022-07-22T02:45:52;16.90;90.40
3678;DHT22;1855;50.934;6.958;2022-07-22T02:48:19;17.00;90.40
3678;DHT22;1855;50.934;6.958;2022-07-22T02:50:47;17.00;90.70
3678;DHT22;1855;50.934;6.958;2022-07-22T02:53:14;16.90;90.90
3678;DHT22;1855;50.934;6.958;2022-07-22T02:55:41;17.00;90.90
3678;DHT22;1855;50.934;6.958;2022-07-22T02:58:09;17.00;91.10
3678;DHT22;1855;50.934;6.958;2022-07-22T03:00:36;17.00;91.10
3678;DHT22;1855;50.934;6.958;2022-07-22T03:03:05;17.00;91.10
3678;DHT22;1855;50.934;6.958;2022-07-22T03:05:32;17.00;90.80
3678;DHT22;1855;50.934;6.958;2022-07-22T03:07:59;17.00;90.50
3678;DHT22;1855;50.934;6.958;2022-07-22T03:10:27;17.00;90.40
3678;DHT22;1855;50.934;6.958;2022-07-22T03:12:54;17.00;90.60
3678;DHT22;1855;50.934;6.958;2022-07-22T03:15:21;16.90;90.40
3678;DHT22;1855;50.934;6.958;2022-07-22T03:17:48;16.90;90.40
3678;DHT22;1855;50.934;6.958;2022-07-22T03:20:16;16.90;90.40
3678;DHT22;1855;50.934;6.958;2022-07-22T03:22:43;16.90;90.30
3678;DHT22;1855;50.934;6.958;2022-07-22T03:25:10;16.80;90.70
3678;DHT22;1855;50.934;6.958;2022-07-22T03:27:37;16.80;90.60
3678;DHT22;1855;50.934;6.958;2022-07-22T03:30:04;16.80;90.70
3678;DHT22;1855;50.934;6.958;2022-07-22T03:32:31;16.80;90.60
3678;DHT22;1855;50.934;6.958;2022-07-22T03:34:58;16.80;90.80
3678;DHT22;1855;50.934;6.958;2022-07-22T03:37:26;16.80;90.90
3678;DHT22;1855;50.934;6.958;2022-07-22T03:39:53;16.80;90.90
3678;DHT22;1855;50.934;6.958;2022-07-22T03:42:20;16.80;91.10
3678;DHT22;1855;50.934;6.958;2022-07-22T03:44:47;16.90;91.10
3678;DHT22;1855;50.934;6.958;2022-07-22T03:47:17;16.90;91.20
3678;DHT22;1855;50.934;6.958;2022-07-22T03:49:44;16.90;91.30
3678;DHT22;1855;50.934;6.958;2022-07-22T03:52:11;17.00;91.20
3678;DHT22;1855;50.934;6.958;2022-07-22T03:54:40;17.00;90.50
3678;DHT22;1855;50.934;6.958;2022-07-22T03:57:06;16.90;90.20
3678;DHT22;1855;50.934;6.958;2022-07-22T03:59:34;17.00;90.40
3678;DHT22;1855;50.934;6.958;2022-07-22T04:02:01;17.00;90.50
3678;DHT22;1855;50.934;6.958;2022-07-22T04:04:28;16.90;90.00
3678;DHT22;1855;50.934;6.958;2022-07-22T04:06:55;16.90;90.30
3678;DHT22;1855;50.934;6.958;2022-07-22T04:09:22;16.90;90.40
3678;DHT22;1855;50.934;6.958;2022-07-22T04:11:50;16.90;90.30
3678;DHT22;1855;50.934;6.958;2022-07-22T04:14:17;16.80;90.60
3678;DHT22;1855;50.934;6.958;2022-07-22T04:16:44;16.90;90.30
3678;DHT22;1855;50.934;6.958;2022-07-22T04:19:11;16.90;90.50
3678;DHT22;1855;50.934;6.958;2022-07-22T04:21:38;17.00;90.40
3678;DHT22;1855;50.934;6.958;2022-07-22T04:24:06;16.90;90.60
3678;DHT22;1855;50.934;6.958;2022-07-22T04:26:33;16.90;90.60
3678;DHT22;1855;50.934;6.958;2022-07-22T04:29:03;16.90;90.80
3678;DHT22;1855;50.934;6.958;2022-07-22T04:31:30;17.00;90.60
3678;DHT22;1855;50.934;6.958;2022-07-22T04:33:57;17.00;90.50
3678;DHT22;1855;50.934;6.958;2022-07-22T04:36:24;17.00;90.50
3678;DHT22;1855;50.934;6.958;2022-07-22T04:38:51;16.90;90.10
3678;DHT22;1855;50.934;6.958;2022-07-22T04:41:18;16.90;90.30
3678;DHT22;1855;50.934;6.958;2022-07-22T04:43:45;16.90;90.30
3678;DHT22;1855;50.934;6.958;2022-07-22T04:46:13;16.90;90.40
3678;DHT22;1855;50.934;6.958;2022-07-22T04:48:40;16.90;90.70
3678;DHT22;1855;50.934;6.958;2022-07-22T04:51:07;16.90;90.80
3678;DHT22;1855;50.934;6.958;2022-07-22T04:53:33;16.90;90.70
3678;DHT22;1855;50.934;6.958;2022-07-22T04:56:00;17.00;90.10
3678;DHT22;1855;50.934;6.958;2022-07-22T04:58:27;16.90;90.20
3678;DHT22;1855;50.934;6.958;2022-07-22T05:00:54;16.90;90.10
3678;DHT22;1855;50.934;6.958;2022-07-22T05:03:22;16.80;90.50
3678;DHT22;1855;50.934;6.958;2022-07-22T05:05:50;16.80;90.90
3678;DHT22;1855;50.934;6.958;2022-07-22T05:08:16;16.90;91.00
3678;DHT22;1855;50.934;6.958;2022-07-22T05:10:43;16.90;91.00
3678;DHT22;1855;50.934;6.958;2022-07-22T05:13:12;17.00;91.20
3678;DHT22;1855;50.934;6.958;2022-07-22T05:15:39;17.00;91.10
3678;DHT22;1855;50.934;6.958;2022-07-22T05:18:06;17.00;91.10
3678;DHT22;1855;50.934;6.958;2022-07-22T05:20:34;17.10;90.90
3678;DHT22;1855;50.934;6.958;2022-07-22T05:23:02;17.00;91.10
3678;DHT22;1855;50.934;6.958;2022-07-22T05:25:29;17.10;91.10
3678;DHT22;1855;50.934;6.958;2022-07-22T05:27:56;17.10;91.00
3678;DHT22;1855;50.934;6.958;2022-07-22T05:30:23;17.10;90.80
3678;DHT22;1855;50.934;6.958;2022-07-22T05:32:51;17.10;91.10
3678;DHT22;1855;50.934;6.958;2022-07-22T05:35:18;17.10;91.20
3678;DHT22;1855;50.934;6.958;2022-07-22T05:37:46;17.20;90.70
3678;DHT22;1855;50.934;6.958;2022-07-22T05:40:13;17.10;90.20
3678;DHT22;1855;50.934;6.958;2022-07-22T05:42:40;17.10;90.40
3678;DHT22;1855;50.934;6.958;2022-07-22T05:45:07;17.10;89.60
3678;DHT22;1855;50.934;6.958;2022-07-22T05:47:34;17.10;89.30
3678;DHT22;1855;50.934;6.958;2022-07-22T05:50:01;17.00;89.60
3678;DHT22;1855;50.934;6.958;2022-07-22T05:52:27;17.00;90.40
3678;DHT22;1855;50.934;6.958;2022-07-22T05:54:58;17.10;90.70
3678;DHT22;1855;50.934;6.958;2022-07-22T05:57:25;17.10;90.80
3678;DHT22;1855;50.934;6.958;2022-07-22T05:59:52;17.20;90.80
3678;DHT22;1855;50.934;6.958;2022-07-22T06:02:19;17.20;90.60
3678;DHT22;1855;50.934;6.958;2022-07-22T06:04:46;17.30;90.40
3678;DHT22;1855;50.934;6.958;2022-07-22T06:07:13;17.30;90.50
3678;DHT22;1855;50.934;6.958;2022-07-22T06:09:40;17.40;90.50
3678;DHT22;1855;50.934;6.958;2022-07-22T06:12:08;17.30;90.10
3678;DHT22;1855;50.934;6.958;2022-07-22T06:14:35;17.40;89.90
3678;DHT22;1855;50.934;6.958;2022-07-22T06:17:02;17.40;89.60
3678;DHT22;1855;50.934;6.958;2022-07-22T06:19:29;17.40;89.20
3678;DHT22;1855;50.934;6.958;2022-07-22T06:21:57;17.50;88.70
3678;DHT22;1855;50.934;6.958;2022-07-22T06:24:24;17.40;89.00
3678;DHT22;1855;50.934;6.958;2022-07-22T06:26:51;17.40;89.10
3678;DHT22;1855;50.934;6.958;2022-07-22T06:29:19;17.50;89.20
3678;DHT22;1855;50.934;6.958;2022-07-22T06:31:46;17.50;88.40
3678;DHT22;1855;50.934;6.958;2022-07-22T06:34:13;17.40;88.70
3678;DHT22;1855;50.934;6.958;2022-07-22T06:36:40;17.40;88.20
3678;DHT22;1855;50.934;6.958;2022-07-22T06:39:06;17.40;87.90
3678;DHT22;1855;50.934;6.958;2022-07-22T06:41:33;17.40;88.10
3678;DHT22;1855;50.934;6.958;2022-07-22T06:44:00;17.40;88.70
3678;DHT22;1855;50.934;6.958;2022-07-22T06:46:28;17.40;89.00
3678;DHT22;1855;50.934;6.958;2022-07-22T06:48:55;17.40;89.80
3678;DHT22;1855;50.934;6.958;2022-07-22T06:51:22;17.40;90.00
3678;DHT22;1855;50.934;6.958;2022-07-22T06:53:49;17.80;88.90
3678;DHT22;1855;50.934;6.958;2022-07-22T06:56:16;17.90;87.00
3678;DHT22;1855;50.934;6.958;2022-07-22T06:58:42;18.00;87.20
3678;DHT22;1855;50.934;6.958;2022-07-22T07:01:09;17.90;87.80
3678;DHT22;1855;50.934;6.958;2022-07-22T07:03:38;17.90;87.30
3678;DHT22;1855;50.934;6.958;2022-07-22T07:06:07;17.90;87.10
3678;DHT22;1855;50.934;6.958;2022-07-22T07:08:34;17.90;86.70
3678;DHT22;1855;50.934;6.958;2022-07-22T07:11:01;17.90;86.40
3678;DHT22;1855;50.934;6.958;2022-07-22T07:13:27;17.90;86.30
3678;DHT22;1855;50.934;6.958;2022-07-22T07:15:54;18.00;85.80
3678;DHT22;1855;50.934;6.958;2022-07-22T07:18:21;18.00;85.40
3678;DHT22;1855;50.934;6.958;2022-07-22T07:20:49;18.10;84.80
3678;DHT22;1855;50.934;6.958;2022-07-22T07:23:16;18.10;84.80
3678;DHT22;1855;50.934;6.958;2022-07-22T07:25:43;18.10;84.50
3678;DHT22;1855;50.934;6.958;2022-07-22T07:28:09;18.10;84.60
3678;DHT22;1855;50.934;6.958;2022-07-22T07:30:36;18.20;83.90
3678;DHT22;1855;50.934;6.958;2022-07-22T07:33:03;18.10;84.00
3678;DHT22;1855;50.934;6.958;2022-07-22T07:35:30;18.10;83.90
3678;DHT22;1855;50.934;6.958;2022-07-22T07:37:58;18.10;84.00
3678;DHT22;1855;50.934;6.958;2022-07-22T07:40:25;18.20;83.50
3678;DHT22;1855;50.934;6.958;2022-07-22T07:42:53;18.20;83.80
3678;DHT22;1855;50.934;6.958;2022-07-22T07:45:19;18.20;83.30
3678;DHT22;1855;50.934;6.958;2022-07-22T07:47:46;18.20;83.30
3678;DHT22;1855;50.934;6.958;2022-07-22T07:50:13;18.20;83.40
3678;DHT22;1855;50.934;6.958;2022-07-22T07:52:42;18.30;82.90
3678;DHT22;1855;50.934;6.958;2022-07-22T07:55:11;18.20;82.70
3678;DHT22;1855;50.934;6.958;2022-07-22T07:57:38;18.30;83.10
3678;DHT22;1855;50.934;6.958;2022-07-22T08:00:09;18.30;82.60
3678;DHT22;1855;50.934;6.958;2022-07-22T08:02:36;18.40;82.50
3678;DHT22;1855;50.934;6.958;2022-07-22T08:05:04;18.40;81.90
3678;DHT22;1855;50.934;6.958;2022-07-22T08:07:31;18.50;82.20
3678;DHT22;1855;50.934;6.958;2022-07-22T08:09:57;18.50;81.30
3678;DHT22;1855;50.934;6.958;2022-07-22T08:12:26;18.40;81.50
3678;DHT22;1855;50.934;6.958;2022-07-22T08:14:52;18.40;82.70
3678;DHT22;1855;50.934;6.958;2022-07-22T08:17:19;18.50;82.50
3678;DHT22;1855;50.934;6.958;2022-07-22T08:19:46;18.50;82.60
3678;DHT22;1855;50.934;6.958;2022-07-22T08:22:13;18.50;81.50
3678;DHT22;1855;50.934;6.958;2022-07-22T08:24:40;18.50;81.70
3678;DHT22;1855;50.934;6.958;2022-07-22T08:27:06;18.60;82.10
3678;DHT22;1855;50.934;6.958;2022-07-22T08:29:35;18.60;82.50
3678;DHT22;1855;50.934;6.958;2022-07-22T08:32:01;18.50;81.80
3678;DHT22;1855;50.934;6.958;2022-07-22T08:34:28;18.60;82.50
3678;DHT22;1855;50.934;6.958;2022-07-22T08:36:55;18.60;82.40
3678;DHT22;1855;50.934;6.958;2022-07-22T08:39:22;18.70;81.50
3678;DHT22;1855;50.934;6.958;2022-07-22T08:41:48;18.70;80.80
3678;DHT22;1855;50.934;6.958;2022-07-22T08:44:16;18.80;81.40
3678;DHT22;1855;50.934;6.958;2022-07-22T08:46:45;18.90;80.40
3678;DHT22;1855;50.934;6.958;2022-07-22T08:49:13;18.90;79.90
3678;DHT22;1855;50.934;6.958;2022-07-22T08:51:40;19.00;80.80
3678;DHT22;1855;50.934;6.958;2022-07-22T08:54:08;19.10;80.00
3678;DHT22;1855;50.934;6.958;2022-07-22T08:56:34;19.20;80.20
3678;DHT22;1855;50.934;6.958;2022-07-22T08:59:03;19.30;79.50
3678;DHT22;1855;50.934;6.958;2022-07-22T09:01:30;19.30;78.60
3678;DHT22;1855;50.934;6.958;2022-07-22T09:03:59;19.30;79.00
3678;DHT22;1855;50.934;6.958;2022-07-22T09:06:27;19.40;78.90
3678;DHT22;1855;50.934;6.958;2022-07-22T09:09:00;19.50;78.80
3678;DHT22;1855;50.934;6.958;2022-07-22T09:11:28;19.50;78.90
3678;DHT22;1855;50.934;6.958;2022-07-22T09:13:56;19.60;78.50
3678;DHT22;1855;50.934;6.958;2022-07-22T09:16:43;19.70;78.00
3678;DHT22;1855;50.934;6.958;2022-07-22T09:19:11;19.70;77.10
3678;DHT22;1855;50.934;6.958;2022-07-22T09:21:41;19.80;76.10
3678;DHT22;1855;50.934;6.958;2022-07-22T09:24:08;19.90;74.40
3678;DHT22;1855;50.934;6.958;2022-07-22T09:26:54;20.00;74.60
3678;DHT22;1855;50.934;6.958;2022-07-22T09:29:22;20.20;74.20
3678;DHT22;1855;50.934;6.958;2022-07-22T09:31:50;20.40;72.80
3678;DHT22;1855;50.934;6.958;2022-07-22T09:34:26;20.50;71.90
3678;DHT22;1855;50.934;6.958;2022-07-22T09:36:55;20.60;72.50
3678;DHT22;1855;50.934;6.958;2022-07-22T09:39:25;20.80;70.00
3678;DHT22;1855;50.934;6.958;2022-07-22T09:42:00;21.00;70.80
3678;DHT22;1855;50.934;6.958;2022-07-22T09:44:27;21.10;70.00
3678;DHT22;1855;50.934;6.958;2022-07-22T09:46:54;21.10;69.20
3678;DHT22;1855;50.934;6.958;2022-07-22T09:49:32;21.20;68.50
3678;DHT22;1855;50.934;6.958;2022-07-22T09:52:00;21.40;69.20
3678;DHT22;1855;50.934;6.958;2022-07-22T09:54:28;21.60;69.60
3678;DHT22;1855;50.934;6.958;2022-07-22T09:56:56;21.90;67.70
3678;DHT22;1855;50.934;6.958;2022-07-22T09:59:23;22.20;63.90
3678;DHT22;1855;50.934;6.958;2022-07-22T10:01:53;22.30;62.70
3678;DHT22;1855;50.934;6.958;2022-07-22T10:04:21;22.50;62.10
3678;DHT22;1855;50.934;6.958;2022-07-22T10:06:54;22.60;62.00
3678;DHT22;1855;50.934;6.958;2022-07-22T10:09:21;22.70;62.60
3678;DHT22;1855;50.934;6.958;2022-07-22T10:11:48;22.70;60.00
3678;DHT22;1855;50.934;6.958;2022-07-22T10:14:17;22.60;59.90
3678;DHT22;1855;50.934;6.958;2022-07-22T10:16:45;22.40;61.70
3678;DHT22;1855;50.934;6.958;2022-07-22T10:19:12;22.40;62.20
3678;DHT22;1855;50.934;6.958;2022-07-22T10:21:39;22.50;62.70
3678;DHT22;1855;50.934;6.958;2022-07-22T10:24:10;22.50;62.30
3678;DHT22;1855;50.934;6.958;2022-07-22T10:26:47;22.40;64.20
3678;DHT22;1855;50.934;6.958;2022-07-22T10:29:25;22.30;64.90
3678;DHT22;1855;50.934;6.958;2022-07-22T10:32:22;22.30;64.10
3678;DHT22;1855;50.934;6.958;2022-07-22T10:35:23;22.10;64.30
3678;DHT22;1855;50.934;6.958;2022-07-22T10:38:02;22.20;65.70
3678;DHT22;1855;50.934;6.958;2022-07-22T10:40:32;22.10;66.50
3678;DHT22;1855;50.934;6.958;2022-07-22T10:43:12;22.20;66.10
3678;DHT22;1855;50.934;6.958;2022-07-22T10:45:42;22.30;65.30
3678;DHT22;1855;50.934;6.958;2022-07-22T10:48:12;22.40;65.20
3678;DHT22;1855;50.934;6.958;2022-07-22T10:50:41;22.50;65.50
3678;DHT22;1855;50.934;6.958;2022-07-22T10:53:10;22.50;67.10
3678;DHT22;1855;50.934;6.958;2022-07-22T10:55:57;22.70;65.60
3678;DHT22;1855;50.934;6.958;2022-07-22T10:58:51;22.70;64.80
3678;DHT22;1855;50.934;6.958;2022-07-22T11:01:20;22.80;65.10
3678;DHT22;1855;50.934;6.958;2022-07-22T11:03:49;22.80;64.00
3678;DHT22;1855;50.934;6.958;2022-07-22T11:06:25;22.80;64.10
3678;DHT22;1855;50.934;6.958;2022-07-22T11:08:54;22.90;63.90
3678;DHT22;1855;50.934;6.958;2022-07-22T11:11:34;23.00;63.20
3678;DHT22;1855;50.934;6.958;2022-07-22T11:14:08;23.10;64.10
3678;DHT22;1855;50.934;6.958;2022-07-22T11:16:37;23.30;63.00
3678;DHT22;1855;50.934;6.958;2022-07-22T11:19:04;23.30;62.80
3678;DHT22;1855;50.934;6.958;2022-07-22T11:21:33;23.50;61.70
3678;DHT22;1855;50.934;6.958;2022-07-22T11:24:01;23.70;61.30
3678;DHT22;1855;50.934;6.958;2022-07-22T11:26:36;24.00;59.50
3678;DHT22;1855;50.934;6.958;2022-07-22T11:29:04;24.20;59.10
3678;DHT22;1855;50.934;6.958;2022-07-22T11:31:31;24.40;58.00
3678;DHT22;1855;50.934;6.958;2022-07-22T11:34:07;24.60;57.80
3678;DHT22;1855;50.934;6.958;2022-07-22T11:36:35;24.60;56.90
3678;DHT22;1855;50.934;6.958;2022-07-22T11:39:03;24.50;56.20
3678;DHT22;1855;50.934;6.958;2022-07-22T11:41:30;24.50;57.50
3678;DHT22;1855;50.934;6.958;2022-07-22T11:43:59;24.60;58.10
3678;DHT22;1855;50.934;6.958;2022-07-22T11:46:27;24.80;56.80
3678;DHT22;1855;50.934;6.958;2022-07-22T11:48:54;24.90;56.30
3678;DHT22;1855;50.934;6.958;2022-07-22T11:51:27;25.00;54.30
3678;DHT22;1855;50.934;6.958;2022-07-22T11:53:54;25.00;53.40
3678;DHT22;1855;50.934;6.958;2022-07-22T11:56:21;25.10;55.20
3678;DHT22;1855;50.934;6.958;2022-07-22T11:58:50;25.10;54.20
3678;DHT22;1855;50.934;6.958;2022-07-22T12:01:21;25.20;54.20
3678;DHT22;1855;50.934;6.958;2022-07-22T12:03:50;25.20;54.00
3678;DHT22;1855;50.934;6.958;2022-07-22T12:06:19;25.30;54.00
3678;DHT22;1855;50.934;6.958;2022-07-22T12:08:48;25.20;54.30
3678;DHT22;1855;50.934;6.958;2022-07-22T12:11:17;25.10;54.10
3678;DHT22;1855;50.934;6.958;2022-07-22T12:13:46;25.00;53.90
3678;DHT22;1855;50.934;6.958;2022-07-22T12:16:23;25.10;54.50
3678;DHT22;1855;50.934;6.958;2022-07-22T12:18:56;25.40;53.60
3678;DHT22;1855;50.934;6.958;2022-07-22T12:21:24;25.80;53.10
3678;DHT22;1855;50.934;6.958;2022-07-22T12:23:54;26.00;52.00
3678;DHT22;1855;50.934;6.958;2022-07-22T12:26:37;26.20;51.70
3678;DHT22;1855;50.934;6.958;2022-07-22T12:29:15;26.40;51.00
3678;DHT22;1855;50.934;6.958;2022-07-22T12:31:45;26.50;50.00
3678;DHT22;1855;50.934;6.958;2022-07-22T12:34:12;26.40;49.90
3678;DHT22;1855;50.934;6.958;2022-07-22T12:36:43;26.40;51.60
3678;DHT22;1855;50.934;6.958;2022-07-22T12:39:12;26.40;50.90
3678;DHT22;1855;50.934;6.958;2022-07-22T12:41:48;26.40;51.00
3678;DHT22;1855;50.934;6.958;2022-07-22T12:44:20;26.50;50.40
3678;DHT22;1855;50.934;6.958;2022-07-22T12:46:50;26.50;49.30
3678;DHT22;1855;50.934;6.958;2022-07-22T12:49:20;26.60;49.50
3678;DHT22;1855;50.934;6.958;2022-07-22T12:52:09;26.80;49.90
3678;DHT22;1855;50.934;6.958;2022-07-22T12:54:37;26.90;48.60
3678;DHT22;1855;50.934;6.958;2022-07-22T12:57:05;27.00;47.80
3678;DHT22;1855;50.934;6.958;2022-07-22T12:59:32;27.00;48.70
3678;DHT22;1855;50.934;6.958;2022-07-22T13:02:01;27.00;49.20
3678;DHT22;1855;50.934;6.958;2022-07-22T13:04:28;27.20;48.70
3678;DHT22;1855;50.934;6.958;2022-07-22T13:06:55;27.10;48.20
3678;DHT22;1855;50.934;6.958;2022-07-22T13:09:22;27.20;48.30
3678;DHT22;1855;50.934;6.958;2022-07-22T13:11:49;27.20;48.40
3678;DHT22;1855;50.934;6.958;2022-07-22T13:14:15;27.20;48.90
3678;DHT22;1855;50.934;6.958;2022-07-22T13:16:42;27.40;48.50
3678;DHT22;1855;50.934;6.958;2022-07-22T13:19:10;27.30;47.50
3678;DHT22;1855;50.934;6.958;2022-07-22T13:21:37;27.40;47.60
3678;DHT22;1855;50.934;6.958;2022-07-22T13:24:05;27.40;47.10
3678;DHT22;1855;50.934;6.958;2022-07-22T13:26:32;27.40;47.60
3678;DHT22;1855;50.934;6.958;2022-07-22T13:28:58;27.40;47.40
3678;DHT22;1855;50.934;6.958;2022-07-22T13:31:25;27.40;47.80
3678;DHT22;1855;50.934;6.958;2022-07-22T13:33:53;27.30;48.00
3678;DHT22;1855;50.934;6.958;2022-07-22T13:36:21;27.50;48.10
3678;DHT22;1855;50.934;6.958;2022-07-22T13:38:49;27.50;47.90
3678;DHT22;1855;50.934;6.958;2022-07-22T13:41:17;27.50;48.30
3678;DHT22;1855;50.934;6.958;2022-07-22T13:43:44;27.50;48.00
3678;DHT22;1855;50.934;6.958;2022-07-22T13:46:11;27.50;46.80
3678;DHT22;1855;50.934;6.958;2022-07-22T13:48:39;27.50;47.50
3678;DHT22;1855;50.934;6.958;2022-07-22T13:51:05;27.60;46.00
3678;DHT22;1855;50.934;6.958;2022-07-22T13:53:34;27.70;46.40
3678;DHT22;1855;50.934;6.958;2022-07-22T13:56:01;27.80;47.30
3678;DHT22;1855;50.934;6.958;2022-07-22T13:58:28;28.00;46.40
3678;DHT22;1855;50.934;6.958;2022-07-22T14:00:56;28.10;44.70
3678;DHT22;1855;50.934;6.958;2022-07-22T14:03:22;28.10;44.80
3678;DHT22;1855;50.934;6.958;2022-07-22T14:05:49;28.10;44.30
3678;DHT22;1855;50.934;6.958;2022-07-22T14:08:16;27.90;44.80
3678;DHT22;1855;50.934;6.958;2022-07-22T14:10:45;27.80;45.20
3678;DHT22;1855;50.934;6.958;2022-07-22T14:13:11;27.70;45.10
3678;DHT22;1855;50.934;6.958;2022-07-22T14:15:38;27.70;45.60
3678;DHT22;1855;50.934;6.958;2022-07-22T14:18:05;27.70;45.30
3678;DHT22;1855;50.934;6.958;2022-07-22T14:20:33;27.70;44.80
3678;DHT22;1855;50.934;6.958;2022-07-22T14:23:00;27.70;44.70
3678;DHT22;1855;50.934;6.958;2022-07-22T14:25:28;27.50;45.20
3678;DHT22;1855;50.934;6.958;2022-07-22T14:27:56;27.30;47.00
3678;DHT22;1855;50.934;6.958;2022-07-22T14:30:24;27.20;47.10
3678;DHT22;1855;50.934;6.958;2022-07-22T14:32:50;27.20;47.00
3678;DHT22;1855;50.934;6.958;2022-07-22T14:35:17;27.10;47.10
3678;DHT22;1855;50.934;6.958;2022-07-22T14:37:44;27.20;48.30
3678;DHT22;1855;50.934;6.958;2022-07-22T14:40:12;27.30;46.00
3678;DHT22;1855;50.934;6.958;2022-07-22T14:42:39;27.40;46.40
3678;DHT22;1855;50.934;6.958;2022-07-22T14:45:08;27.40;45.90
3678;DHT22;1855;50.934;6.958;2022-07-22T14:47:35;27.40;46.00
3678;DHT22;1855;50.934;6.958;2022-07-22T14:50:03;27.50;45.20
3678;DHT22;1855;50.934;6.958;2022-07-22T14:52:30;27.40;45.40
3678;DHT22;1855;50.934;6.958;2022-07-22T14:54:57;27.10;45.10
3678;DHT22;1855;50.934;6.958;2022-07-22T14:57:24;27.00;45.60
3678;DHT22;1855;50.934;6.958;2022-07-22T14:59:50;26.70;46.30
3678;DHT22;1855;50.934;6.958;2022-07-22T15:02:18;26.70;47.20
3678;DHT22;1855;50.934;6.958;2022-07-22T15:04:46;26.60;47.30
3678;DHT22;1855;50.934;6.958;2022-07-22T15:07:12;26.60;46.80
3678;DHT22;1855;50.934;6.958;2022-07-22T15:09:39;26.50;47.60
3678;DHT22;1855;50.934;6.958;2022-07-22T15:12:06;26.60;47.50
3678;DHT22;1855;50.934;6.958;2022-07-22T15:14:33;26.60;46.90
3678;DHT22;1855;50.934;6.958;2022-07-22T15:16:59;26.70;47.70
3678;DHT22;1855;50.934;6.958;2022-07-22T15:19:28;26.60;46.70
3678;DHT22;1855;50.934;6.958;2022-07-22T15:21:55;26.60;46.80
3678;DHT22;1855;50.934;6.958;2022-07-22T15:24:22;26.50;46.50
3678;DHT22;1855;50.934;6.958;2022-07-22T15:26:48;26.50;47.10
3678;DHT22;1855;50.934;6.958;2022-07-22T15:29:15;26.50;47.10
3678;DHT22;1855;50.934;6.958;2022-07-22T15:31:42;26.50;47.50
3678;DHT22;1855;50.934;6.958;2022-07-22T15:34:09;26.60;46.80
3678;DHT22;1855;50.934;6.958;2022-07-22T15:36:37;26.60;47.20
3678;DHT22;1855;50.934;6.958;2022-07-22T15:39:04;26.60;46.90
3678;DHT22;1855;50.934;6.958;2022-07-22T15:41:31;26.50;47.30
3678;DHT22;1855;50.934;6.958;2022-07-22T15:43:58;26.50;46.80
3678;DHT22;1855;50.934;6.958;2022-07-22T15:46:24;26.50;46.60
3678;DHT22;1855;50.934;6.958;2022-07-22T15:48:51;26.40;47.00
3678;DHT22;1855;50.934;6.958;2022-07-22T15:51:18;26.30;47.70
3678;DHT22;1855;50.934;6.958;2022-07-22T15:53:46;26.30;48.50
3678;DHT22;1855;50.934;6.958;2022-07-22T15:56:13;26.30;46.90
3678;DHT22;1855;50.934;6.958;2022-07-22T15:58:40;26.30;47.40
3678;DHT22;1855;50.934;6.958;2022-07-22T16:01:24;26.30;47.70
3678;DHT22;1855;50.934;6.958;2022-07-22T16:03:51;26.30;47.00
3678;DHT22;1855;50.934;6.958;2022-07-22T16:06:18;26.30;47.10
3678;DHT22;1855;50.934;6.958;2022-07-22T16:08:46;26.50;47.20